sensor_id;sensor_type;location;lat;lon;timestamp;temperature;humidity
68719;DHT22;55696;52.138;5.444;2023-11-18T00:02:25;9.40;76.10
68719;DHT22;55696;52.138;5.444;2023-11-18T00:04:52;9.30;76.10
68719;DHT22;55696;52.138;5.444;2023-11-18T00:07:19;9.30;76.10
68719;DHT22;55696;52.138;5.444;2023-11-18T00:09:46;9.30;76.10
68719;DHT22;55696;52.138;5.444;2023-11-18T00:12:13;9.20;76.30
68719;DHT22;55696;52.138;5.444;2023-11-18T00:14:40;9.20;76.10
68719;DHT22;55696;52.138;5.444;2023-11-18T00:17:09;9.20;76.40
68719;DHT22;55696;52.138;5.444;2023-11-18T00:19:36;9.20;76.20
68719;DHT22;55696;52.138;5.444;2023-11-18T00:22:03;9.20;76.30
68719;DHT22;55696;52.138;5.444;2023-11-18T00:24:30;9.20;76.30
68719;DHT22;55696;52.138;5.444;2023-11-18T00:27:01;9.10;76.40
68719;DHT22;55696;52.138;5.444;2023-11-18T00:29:35;9.20;76.90
68719;DHT22;55696;52.138;5.444;2023-11-18T00:32:01;9.20;76.60
68719;DHT22;55696;52.138;5.444;2023-11-18T00:34:30;9.20;76.20
68719;DHT22;55696;52.138;5.444;2023-11-18T00:36:57;9.10;76.40
68719;DHT22;55696;52.138;5.444;2023-11-18T00:39:25;9.20;76.20
68719;DHT22;55696;52.138;5.444;2023-11-18T00:41:51;9.00;76.90
68719;DHT22;55696;52.138;5.444;2023-11-18T00:44:18;9.20;76.30
68719;DHT22;55696;52.138;5.444;2023-11-18T00:46:45;9.00;76.30
68719;DHT22;55696;52.138;5.444;2023-11-18T00:49:12;9.10;76.40
68719;DHT22;55696;52.138;5.444;2023-11-18T00:51:39;9.20;76.20
68719;DHT22;55696;52.138;5.444;2023-11-18T00:54:06;9.00;76.40
68719;DHT22;55696;52.138;5.444;2023-11-18T00:56:33;9.10;76.40
68719;DHT22;55696;52.138;5.444;2023-11-18T00:59:00;9.00;76.80
68719;DHT22;55696;52.138;5.444;2023-11-18T01:01:30;8.90;76.40
68719;DHT22;55696;52.138;5.444;2023-11-18T01:03:58;9.10;76.40
68719;DHT22;55696;52.138;5.444;2023-11-18T01:06:26;8.90;77.30
68719;DHT22;55696;52.138;5.444;2023-11-18T01:08:53;8.90;77.20
68719;DHT22;55696;52.138;5.444;2023-11-18T01:11:20;8.90;76.40
68719;DHT22;55696;52.138;5.444;2023-11-18T01:13:49;8.80;77.00
68719;DHT22;55696;52.138;5.444;2023-11-18T01:16:16;8.80;76.70
68719;DHT22;55696;52.138;5.444;2023-11-18T01:18:43;8.80;76.50
68719;DHT22;55696;52.138;5.444;2023-11-18T01:21:10;8.90;76.60
68719;DHT22;55696;52.138;5.444;2023-11-18T01:23:38;9.00;76.30
68719;DHT22;55696;52.138;5.444;2023-11-18T01:26:08;9.00;76.80
68719;DHT22;55696;52.138;5.444;2023-11-18T01:28:35;9.70;76.40
68719;DHT22;55696;52.138;5.444;2023-11-18T01:31:08;9.00;75.60
68719;DHT22;55696;52.138;5.444;2023-11-18T01:33:39;8.90;76.20
68719;DHT22;55696;52.138;5.444;2023-11-18T01:36:08;9.10;77.90
68719;DHT22;55696;52.138;5.444;2023-11-18T01:38:38;9.10;77.00
68719;DHT22;55696;52.138;5.444;2023-11-18T01:41:05;9.10;76.90
68719;DHT22;55696;52.138;5.444;2023-11-18T01:43:33;9.10;76.70
68719;DHT22;55696;52.138;5.444;2023-11-18T01:46:02;9.10;76.50
68719;DHT22;55696;52.138;5.444;2023-11-18T01:48:31;9.20;77.60
68719;DHT22;55696;52.138;5.444;2023-11-18T01:51:01;9.10;77.10
68719;DHT22;55696;52.138;5.444;2023-11-18T01:53:31;9.20;77.50
68719;DHT22;55696;52.138;5.444;2023-11-18T01:55:57;9.10;76.80
68719;DHT22;55696;52.138;5.444;2023-11-18T01:58:26;9.10;76.30
68719;DHT22;55696;52.138;5.444;2023-11-18T02:00:54;9.20;76.70
68719;DHT22;55696;52.138;5.444;2023-11-18T02:03:22;9.20;77.10
68719;DHT22;55696;52.138;5.444;2023-11-18T02:05:49;9.20;76.30
68719;DHT22;55696;52.138;5.444;2023-11-18T02:08:18;9.10;76.00
68719;DHT22;55696;52.138;5.444;2023-11-18T02:10:55;9.20;76.20
68719;DHT22;55696;52.138;5.444;2023-11-18T02:13:31;9.20;78.20
68719;DHT22;55696;52.138;5.444;2023-11-18T02:15:59;9.30;77.80
68719;DHT22;55696;52.138;5.444;2023-11-18T02:18:29;9.30;76.50
68719;DHT22;55696;52.138;5.444;2023-11-18T02:20:57;9.40;77.70
68719;DHT22;55696;52.138;5.444;2023-11-18T02:23:26;9.40;77.00
68719;DHT22;55696;52.138;5.444;2023-11-18T02:25:54;9.40;76.30
68719;DHT22;55696;52.138;5.444;2023-11-18T02:28:24;9.40;76.50
68719;DHT22;55696;52.138;5.444;2023-11-18T02:30:56;9.50;76.20
68719;DHT22;55696;52.138;5.444;2023-11-18T02:33:41;9.50;78.00
68719;DHT22;55696;52.138;5.444;2023-11-18T02:39:09;9.50;77.80
68719;DHT22;55696;52.138;5.444;2023-11-18T02:41:38;9.50;78.00
68719;DHT22;55696;52.138;5.444;2023-11-18T02:44:06;9.40;77.10
68719;DHT22;55696;52.138;5.444;2023-11-18T02:46:38;10.80;77.20
68719;DHT22;55696;52.138;5.444;2023-11-18T02:49:06;9.50;77.20
68719;DHT22;55696;52.138;5.444;2023-11-18T02:51:33;9.50;76.10
68719;DHT22;55696;52.138;5.444;2023-11-18T02:54:07;9.50;76.20
68719;DHT22;55696;52.138;5.444;2023-11-18T02:56:37;9.40;76.70
68719;DHT22;55696;52.138;5.444;2023-11-18T02:59:04;9.50;76.90
68719;DHT22;55696;52.138;5.444;2023-11-18T03:01:34;9.50;76.00
68719;DHT22;55696;52.138;5.444;2023-11-18T03:04:01;9.50;76.80
68719;DHT22;55696;52.138;5.444;2023-11-18T03:06:28;9.40;76.80
68719;DHT22;55696;52.138;5.444;2023-11-18T03:08:56;9.40;76.40
68719;DHT22;55696;52.138;5.444;2023-11-18T03:11:22;9.50;76.50
68719;DHT22;55696;52.138;5.444;2023-11-18T03:13:49;9.40;76.40
68719;DHT22;55696;52.138;5.444;2023-11-18T03:16:16;8.90;76.20
68719;DHT22;55696;52.138;5.444;2023-11-18T03:18:43;9.40;76.50
68719;DHT22;55696;52.138;5.444;2023-11-18T03:21:11;9.30;76.40
68719;DHT22;55696;52.138;5.444;2023-11-18T03:23:39;9.40;77.20
68719;DHT22;55696;52.138;5.444;2023-11-18T03:26:10;9.40;77.20
68719;DHT22;55696;52.138;5.444;2023-11-18T03:28:37;9.50;78.30
68719;DHT22;55696;52.138;5.444;2023-11-18T03:31:05;9.30;77.00
68719;DHT22;55696;52.138;5.444;2023-11-18T03:33:32;9.50;77.40
68719;DHT22;55696;52.138;5.444;2023-11-18T03:35:59;9.40;77.10
68719;DHT22;55696;52.138;5.444;2023-11-18T03:38:26;9.40;76.50
68719;DHT22;55696;52.138;5.444;2023-11-18T03:40:55;9.20;76.50
68719;DHT22;55696;52.138;5.444;2023-11-18T03:43:23;9.40;76.50
68719;DHT22;55696;52.138;5.444;2023-11-18T03:45:50;9.50;76.60
68719;DHT22;55696;52.138;5.444;2023-11-18T03:48:19;9.40;76.50
68719;DHT22;55696;52.138;5.444;2023-11-18T03:50:46;9.40;76.50
68719;DHT22;55696;52.138;5.444;2023-11-18T03:53:13;9.40;76.60
68719;DHT22;55696;52.138;5.444;2023-11-18T03:55:40;9.40;76.50
68719;DHT22;55696;52.138;5.444;2023-11-18T03:58:07;9.50;76.60
68719;DHT22;55696;52.138;5.444;2023-11-18T04:00:35;9.50;76.60
68719;DHT22;55696;52.138;5.444;2023-11-18T04:03:02;9.50;76.70
68719;DHT22;55696;52.138;5.444;2023-11-18T04:05:30;9.50;76.60
68719;DHT22;55696;52.138;5.444;2023-11-18T04:07:59;9.60;76.50
68719;DHT22;55696;52.138;5.444;2023-11-18T04:10:27;9.50;76.40
68719;DHT22;55696;52.138;5.444;2023-11-18T04:12:53;9.60;77.30
68719;DHT22;55696;52.138;5.444;2023-11-18T04:15:20;9.50;76.50
68719;DHT22;55696;52.138;5.444;2023-11-18T04:17:47;9.60;76.50
68719;DHT22;55696;52.138;5.444;2023-11-18T04:20:14;9.70;76.60
68719;DHT22;55696;52.138;5.444;2023-11-18T04:22:43;9.60;76.30
68719;DHT22;55696;52.138;5.444;2023-11-18T04:25:11;9.60;77.00
68719;DHT22;55696;52.138;5.444;2023-11-18T04:27:38;9.60;77.30
68719;DHT22;55696;52.138;5.444;2023-11-18T04:30:05;9.50;76.90
68719;DHT22;55696;52.138;5.444;2023-11-18T04:32:33;9.70;76.80
68719;DHT22;55696;52.138;5.444;2023-11-18T04:35:00;9.60;76.90
68719;DHT22;55696;52.138;5.444;2023-11-18T04:37:36;9.60;77.20
68719;DHT22;55696;52.138;5.444;2023-11-18T04:40:03;9.60;78.40
68719;DHT22;55696;52.138;5.444;2023-11-18T04:42:30;9.70;77.10
68719;DHT22;55696;52.138;5.444;2023-11-18T04:44:57;9.60;76.90
68719;DHT22;55696;52.138;5.444;2023-11-18T04:47:25;9.60;76.90
68719;DHT22;55696;52.138;5.444;2023-11-18T04:49:52;9.60;76.70
68719;DHT22;55696;52.138;5.444;2023-11-18T04:52:19;9.70;76.90
68719;DHT22;55696;52.138;5.444;2023-11-18T04:54:45;9.70;76.60
68719;DHT22;55696;52.138;5.444;2023-11-18T04:57:14;9.70;76.50
68719;DHT22;55696;52.138;5.444;2023-11-18T04:59:44;9.60;76.60
68719;DHT22;55696;52.138;5.444;2023-11-18T05:02:11;9.70;78.30
68719;DHT22;55696;52.138;5.444;2023-11-18T05:04:38;9.40;76.60
68719;DHT22;55696;52.138;5.444;2023-11-18T05:07:05;9.70;76.90
68719;DHT22;55696;52.138;5.444;2023-11-18T05:09:33;9.60;76.50
68719;DHT22;55696;52.138;5.444;2023-11-18T05:12:00;9.60;76.80
68719;DHT22;55696;52.138;5.444;2023-11-18T05:14:27;11.30;77.80
68719;DHT22;55696;52.138;5.444;2023-11-18T05:16:55;9.60;76.70
68719;DHT22;55696;52.138;5.444;2023-11-18T05:19:22;9.80;77.30
68719;DHT22;55696;52.138;5.444;2023-11-18T05:21:50;9.80;76.90
68719;DHT22;55696;52.138;5.444;2023-11-18T05:24:16;9.80;76.80
68719;DHT22;55696;52.138;5.444;2023-11-18T05:26:43;9.80;76.70
68719;DHT22;55696;52.138;5.444;2023-11-18T05:29:11;9.80;76.90
68719;DHT22;55696;52.138;5.444;2023-11-18T05:31:43;9.70;76.70
68719;DHT22;55696;52.138;5.444;2023-11-18T05:34:10;9.80;76.80
68719;DHT22;55696;52.138;5.444;2023-11-18T05:36:37;9.80;76.70
68719;DHT22;55696;52.138;5.444;2023-11-18T05:39:04;9.80;76.60
68719;DHT22;55696;52.138;5.444;2023-11-18T05:41:31;9.80;76.90
68719;DHT22;55696;52.138;5.444;2023-11-18T05:44:01;9.80;76.70
68719;DHT22;55696;52.138;5.444;2023-11-18T05:46:28;9.80;76.70
68719;DHT22;55696;52.138;5.444;2023-11-18T05:48:57;9.80;76.80
68719;DHT22;55696;52.138;5.444;2023-11-18T05:51:25;9.80;76.60
68719;DHT22;55696;52.138;5.444;2023-11-18T05:53:53;9.90;77.50
68719;DHT22;55696;52.138;5.444;2023-11-18T05:56:20;9.80;76.90
68719;DHT22;55696;52.138;5.444;2023-11-18T05:58:53;9.80;77.10
68719;DHT22;55696;52.138;5.444;2023-11-18T06:01:21;9.90;77.00
68719;DHT22;55696;52.138;5.444;2023-11-18T06:03:48;9.90;76.70
68719;DHT22;55696;52.138;5.444;2023-11-18T06:06:16;9.70;76.30
68719;DHT22;55696;52.138;5.444;2023-11-18T06:08:49;9.90;77.20
68719;DHT22;55696;52.138;5.444;2023-11-18T06:11:16;10.00;77.10
68719;DHT22;55696;52.138;5.444;2023-11-18T06:13:50;9.90;76.50
68719;DHT22;55696;52.138;5.444;2023-11-18T06:16:20;9.90;78.30
68719;DHT22;55696;52.138;5.444;2023-11-18T06:18:49;10.00;77.50
68719;DHT22;55696;52.138;5.444;2023-11-18T06:21:20;10.00;77.30
68719;DHT22;55696;52.138;5.444;2023-11-18T06:23:51;9.90;78.10
68719;DHT22;55696;52.138;5.444;2023-11-18T06:26:17;10.00;76.40
68719;DHT22;55696;52.138;5.444;2023-11-18T06:28:46;9.90;76.10
68719;DHT22;55696;52.138;5.444;2023-11-18T06:31:12;9.90;76.90
68719;DHT22;55696;52.138;5.444;2023-11-18T06:33:41;10.00;76.30
68719;DHT22;55696;52.138;5.444;2023-11-18T06:38:41;9.80;78.00
68719;DHT22;55696;52.138;5.444;2023-11-18T06:41:08;9.90;76.40
68719;DHT22;55696;52.138;5.444;2023-11-18T06:43:38;10.00;76.10
68719;DHT22;55696;52.138;5.444;2023-11-18T06:46:19;10.00;76.50
68719;DHT22;55696;52.138;5.444;2023-11-18T06:48:48;9.90;76.70
68719;DHT22;55696;52.138;5.444;2023-11-18T06:51:16;9.90;77.00
68719;DHT22;55696;52.138;5.444;2023-11-18T06:53:43;9.80;76.70
68719;DHT22;55696;52.138;5.444;2023-11-18T06:56:13;9.90;75.70
68719;DHT22;55696;52.138;5.444;2023-11-18T06:58:39;9.40;76.00
68719;DHT22;55696;52.138;5.444;2023-11-18T07:01:07;9.90;76.20
68719;DHT22;55696;52.138;5.444;2023-11-18T07:03:35;9.90;76.10
68719;DHT22;55696;52.138;5.444;2023-11-18T07:06:03;12.20;77.30
68719;DHT22;55696;52.138;5.444;2023-11-18T07:08:32;9.90;77.00
68719;DHT22;55696;52.138;5.444;2023-11-18T07:11:02;9.90;76.10
68719;DHT22;55696;52.138;5.444;2023-11-18T07:13:29;10.00;76.40
68719;DHT22;55696;52.138;5.444;2023-11-18T07:15:56;10.00;76.40
68719;DHT22;55696;52.138;5.444;2023-11-18T07:18:24;9.90;75.90
68719;DHT22;55696;52.138;5.444;2023-11-18T07:20:51;9.90;75.90
68719;DHT22;55696;52.138;5.444;2023-11-18T07:23:19;10.10;76.20
68719;DHT22;55696;52.138;5.444;2023-11-18T07:25:46;10.10;76.20
68719;DHT22;55696;52.138;5.444;2023-11-18T07:28:14;10.20;75.60
68719;DHT22;55696;52.138;5.444;2023-11-18T07:30:44;10.10;75.60
68719;DHT22;55696;52.138;5.444;2023-11-18T07:33:17;10.20;75.60
68719;DHT22;55696;52.138;5.444;2023-11-18T07:35:46;10.20;77.30
68719;DHT22;55696;52.138;5.444;2023-11-18T07:38:17;10.10;76.30
68719;DHT22;55696;52.138;5.444;2023-11-18T07:40:46;10.20;77.30
68719;DHT22;55696;52.138;5.444;2023-11-18T07:43:15;10.20;75.60
68719;DHT22;55696;52.138;5.444;2023-11-18T07:45:42;10.10;76.20
68719;DHT22;55696;52.138;5.444;2023-11-18T07:48:11;10.30;75.80
68719;DHT22;55696;52.138;5.444;2023-11-18T07:50:44;10.20;76.60
68719;DHT22;55696;52.138;5.444;2023-11-18T07:53:11;10.20;76.20
68719;DHT22;55696;52.138;5.444;2023-11-18T07:55:38;10.20;75.70
68719;DHT22;55696;52.138;5.444;2023-11-18T07:58:07;10.20;75.80
68719;DHT22;55696;52.138;5.444;2023-11-18T08:00:38;10.30;76.60
68719;DHT22;55696;52.138;5.444;2023-11-18T08:03:06;10.00;76.30
68719;DHT22;55696;52.138;5.444;2023-11-18T08:05:42;10.20;76.60
68719;DHT22;55696;52.138;5.444;2023-11-18T08:08:12;10.10;76.70
68719;DHT22;55696;52.138;5.444;2023-11-18T08:10:40;10.20;76.30
68719;DHT22;55696;52.138;5.444;2023-11-18T08:13:08;10.20;76.50
68719;DHT22;55696;52.138;5.444;2023-11-18T08:15:39;10.20;76.70
68719;DHT22;55696;52.138;5.444;2023-11-18T08:18:09;10.10;77.50
68719;DHT22;55696;52.138;5.444;2023-11-18T08:20:38;10.10;76.20
68719;DHT22;55696;52.138;5.444;2023-11-18T08:23:05;10.20;76.00
68719;DHT22;55696;52.138;5.444;2023-11-18T08:25:32;10.20;75.90
68719;DHT22;55696;52.138;5.444;2023-11-18T08:28:07;10.20;75.50
68719;DHT22;55696;52.138;5.444;2023-11-18T08:30:37;10.30;76.40
68719;DHT22;55696;52.138;5.444;2023-11-18T08:33:04;10.30;75.80
68719;DHT22;55696;52.138;5.444;2023-11-18T08:35:32;10.30;75.50
68719;DHT22;55696;52.138;5.444;2023-11-18T08:37:59;10.20;75.60
68719;DHT22;55696;52.138;5.444;2023-11-18T08:40:27;10.30;75.70
68719;DHT22;55696;52.138;5.444;2023-11-18T08:42:54;10.20;75.60
68719;DHT22;55696;52.138;5.444;2023-11-18T08:45:24;10.30;75.80
68719;DHT22;55696;52.138;5.444;2023-11-18T08:47:56;10.40;76.60
68719;DHT22;55696;52.138;5.444;2023-11-18T08:50:24;10.40;76.40
68719;DHT22;55696;52.138;5.444;2023-11-18T08:52:53;10.30;76.30
68719;DHT22;55696;52.138;5.444;2023-11-18T08:55:26;10.40;76.50
68719;DHT22;55696;52.138;5.444;2023-11-18T08:58:08;10.50;76.60
68719;DHT22;55696;52.138;5.444;2023-11-18T09:00:57;10.50;76.10
68719;DHT22;55696;52.138;5.444;2023-11-18T09:03:40;10.60;77.10
68719;DHT22;55696;52.138;5.444;2023-11-18T09:06:10;10.60;75.60
68719;DHT22;55696;52.138;5.444;2023-11-18T09:08:54;10.50;75.40
68719;DHT22;55696;52.138;5.444;2023-11-18T09:11:24;10.60;74.90
68719;DHT22;55696;52.138;5.444;2023-11-18T09:13:55;10.50;76.70
68719;DHT22;55696;52.138;5.444;2023-11-18T09:16:27;10.60;74.90
68719;DHT22;55696;52.138;5.444;2023-11-18T09:18:56;10.60;74.90
68719;DHT22;55696;52.138;5.444;2023-11-18T09:21:26;10.70;74.80
68719;DHT22;55696;52.138;5.444;2023-11-18T09:23:57;10.70;74.60
68719;DHT22;55696;52.138;5.444;2023-11-18T09:26:24;10.70;75.30
68719;DHT22;55696;52.138;5.444;2023-11-18T09:28:52;10.70;74.60
68719;DHT22;55696;52.138;5.444;2023-11-18T09:31:20;10.80;74.70
68719;DHT22;55696;52.138;5.444;2023-11-18T09:33:48;10.80;75.50
68719;DHT22;55696;52.138;5.444;2023-11-18T09:36:24;10.80;74.00
68719;DHT22;55696;52.138;5.444;2023-11-18T09:38:52;10.80;74.50
68719;DHT22;55696;52.138;5.444;2023-11-18T09:41:23;10.80;74.20
68719;DHT22;55696;52.138;5.444;2023-11-18T09:43:52;10.70;75.90
68719;DHT22;55696;52.138;5.444;2023-11-18T09:46:25;10.70;74.40
68719;DHT22;55696;52.138;5.444;2023-11-18T09:49:17;10.70;75.50
68719;DHT22;55696;52.138;5.444;2023-11-18T09:51:57;10.80;76.00
68719;DHT22;55696;52.138;5.444;2023-11-18T09:54:33;10.70;76.50
68719;DHT22;55696;52.138;5.444;2023-11-18T09:57:08;10.70;76.60
68719;DHT22;55696;52.138;5.444;2023-11-18T10:00:00;10.70;76.50
68719;DHT22;55696;52.138;5.444;2023-11-18T10:02:39;10.80;77.00
68719;DHT22;55696;52.138;5.444;2023-11-18T10:05:07;10.80;76.20
68719;DHT22;55696;52.138;5.444;2023-11-18T10:07:41;10.80;75.50
68719;DHT22;55696;52.138;5.444;2023-11-18T10:10:09;10.80;76.40
68719;DHT22;55696;52.138;5.444;2023-11-18T10:12:44;10.80;75.40
68719;DHT22;55696;52.138;5.444;2023-11-18T10:15:14;10.80;76.70
68719;DHT22;55696;52.138;5.444;2023-11-18T10:17:45;10.80;76.50
68719;DHT22;55696;52.138;5.444;2023-11-18T10:20:42;10.80;76.90
68719;DHT22;55696;52.138;5.444;2023-11-18T10:23:12;10.80;77.40
68719;DHT22;55696;52.138;5.444;2023-11-18T10:25:49;10.80;75.90
68719;DHT22;55696;52.138;5.444;2023-11-18T10:31:01;10.90;76.70
68719;DHT22;55696;52.138;5.444;2023-11-18T10:33:40;10.90;76.00
68719;DHT22;55696;52.138;5.444;2023-11-18T10:36:20;10.90;77.40
68719;DHT22;55696;52.138;5.444;2023-11-18T10:38:51;10.90;77.20
68719;DHT22;55696;52.138;5.444;2023-11-18T10:41:20;10.90;75.80
68719;DHT22;55696;52.138;5.444;2023-11-18T10:43:48;10.80;75.30
68719;DHT22;55696;52.138;5.444;2023-11-18T10:46:16;10.90;75.60
68719;DHT22;55696;52.138;5.444;2023-11-18T10:48:45;10.80;76.30
68719;DHT22;55696;52.138;5.444;2023-11-18T10:51:16;10.90;76.40
68719;DHT22;55696;52.138;5.444;2023-11-18T10:53:49;10.90;76.40
68719;DHT22;55696;52.138;5.444;2023-11-18T10:56:23;10.90;77.30
68719;DHT22;55696;52.138;5.444;2023-11-18T10:59:04;10.90;75.30
68719;DHT22;55696;52.138;5.444;2023-11-18T11:01:38;10.90;76.70
68719;DHT22;55696;52.138;5.444;2023-11-18T11:04:15;10.80;76.70
68719;DHT22;55696;52.138;5.444;2023-11-18T11:06:48;10.90;77.20
68719;DHT22;55696;52.138;5.444;2023-11-18T11:09:24;10.90;76.30
68719;DHT22;55696;52.138;5.444;2023-11-18T11:11:59;10.90;76.40
68719;DHT22;55696;52.138;5.444;2023-11-18T11:14:33;11.00;77.60
68719;DHT22;55696;52.138;5.444;2023-11-18T11:17:06;11.00;76.60
68719;DHT22;55696;52.138;5.444;2023-11-18T11:25:41;10.90;77.30
68719;DHT22;55696;52.138;5.444;2023-11-18T11:28:11;11.00;78.00
68719;DHT22;55696;52.138;5.444;2023-11-18T11:30:49;10.90;76.10
68719;DHT22;55696;52.138;5.444;2023-11-18T11:33:20;11.10;77.50
68719;DHT22;55696;52.138;5.444;2023-11-18T11:35:54;10.80;76.10
68719;DHT22;55696;52.138;5.444;2023-11-18T11:38:24;11.00;78.10
68719;DHT22;55696;52.138;5.444;2023-11-18T11:40:53;11.00;77.00
68719;DHT22;55696;52.138;5.444;2023-11-18T11:43:21;11.00;76.40
68719;DHT22;55696;52.138;5.444;2023-11-18T11:45:50;11.00;76.30
68719;DHT22;55696;52.138;5.444;2023-11-18T11:48:19;11.10;77.30
68719;DHT22;55696;52.138;5.444;2023-11-18T11:54:01;11.10;77.80
68719;DHT22;55696;52.138;5.444;2023-11-18T11:56:43;11.20;77.70
68719;DHT22;55696;52.138;5.444;2023-11-18T11:59:17;11.20;78.50
68719;DHT22;55696;52.138;5.444;2023-11-18T12:01:47;11.20;78.10
68719;DHT22;55696;52.138;5.444;2023-11-18T12:04:19;11.10;77.90
68719;DHT22;55696;52.138;5.444;2023-11-18T12:06:55;11.00;76.30
68719;DHT22;55696;52.138;5.444;2023-11-18T12:09:38;11.30;76.50
68719;DHT22;55696;52.138;5.444;2023-11-18T12:12:06;11.20;76.30
68719;DHT22;55696;52.138;5.444;2023-11-18T12:14:55;11.20;77.00
68719;DHT22;55696;52.138;5.444;2023-11-18T12:20:44;11.20;78.00
68719;DHT22;55696;52.138;5.444;2023-11-18T12:23:14;11.20;78.80
68719;DHT22;55696;52.138;5.444;2023-11-18T12:25:42;11.20;76.50
68719;DHT22;55696;52.138;5.444;2023-11-18T12:28:11;11.30;76.40
68719;DHT22;55696;52.138;5.444;2023-11-18T12:30:38;11.40;77.40
68719;DHT22;55696;52.138;5.444;2023-11-18T12:33:09;11.40;76.80
68719;DHT22;55696;52.138;5.444;2023-11-18T12:40:57;11.40;77.80
68719;DHT22;55696;52.138;5.444;2023-11-18T12:43:47;11.40;77.30
68719;DHT22;55696;52.138;5.444;2023-11-18T12:49:00;11.50;78.00
68719;DHT22;55696;52.138;5.444;2023-11-18T12:51:28;12.60;78.60
68719;DHT22;55696;52.138;5.444;2023-11-18T12:53:58;11.30;76.80
68719;DHT22;55696;52.138;5.444;2023-11-18T12:56:26;12.10;77.80
68719;DHT22;55696;52.138;5.444;2023-11-18T12:58:55;11.30;77.20
68719;DHT22;55696;52.138;5.444;2023-11-18T13:01:22;12.30;77.40
68719;DHT22;55696;52.138;5.444;2023-11-18T13:03:49;11.30;77.50
68719;DHT22;55696;52.138;5.444;2023-11-18T13:06:17;11.10;77.10
68719;DHT22;55696;52.138;5.444;2023-11-18T13:08:44;11.30;77.40
68719;DHT22;55696;52.138;5.444;2023-11-18T13:11:11;11.30;77.30
68719;DHT22;55696;52.138;5.444;2023-11-18T13:13:43;11.30;77.20
68719;DHT22;55696;52.138;5.444;2023-11-18T13:16:10;11.40;77.40
68719;DHT22;55696;52.138;5.444;2023-11-18T13:18:44;11.40;77.40
68719;DHT22;55696;52.138;5.444;2023-11-18T13:21:15;11.40;79.20
68719;DHT22;55696;52.138;5.444;2023-11-18T13:23:49;11.50;79.10
68719;DHT22;55696;52.138;5.444;2023-11-18T13:26:19;11.50;78.70
68719;DHT22;55696;52.138;5.444;2023-11-18T13:28:47;11.40;77.90
68719;DHT22;55696;52.138;5.444;2023-11-18T13:31:16;11.40;77.80
68719;DHT22;55696;52.138;5.444;2023-11-18T13:33:44;11.50;78.30
68719;DHT22;55696;52.138;5.444;2023-11-18T13:36:14;11.50;77.80
68719;DHT22;55696;52.138;5.444;2023-11-18T13:38:41;11.30;77.60
68719;DHT22;55696;52.138;5.444;2023-11-18T13:41:08;11.40;77.30
68719;DHT22;55696;52.138;5.444;2023-11-18T13:43:45;11.40;77.40
68719;DHT22;55696;52.138;5.444;2023-11-18T13:46:14;11.50;79.60
68719;DHT22;55696;52.138;5.444;2023-11-18T13:48:52;11.40;78.00
68719;DHT22;55696;52.138;5.444;2023-11-18T13:51:21;11.40;79.50
68719;DHT22;55696;52.138;5.444;2023-11-18T13:53:48;11.50;78.60
68719;DHT22;55696;52.138;5.444;2023-11-18T13:56:15;11.50;77.80
68719;DHT22;55696;52.138;5.444;2023-11-18T13:58:44;11.40;78.00
68719;DHT22;55696;52.138;5.444;2023-11-18T14:01:12;12.50;78.10
68719;DHT22;55696;52.138;5.444;2023-11-18T14:03:40;11.60;77.80
68719;DHT22;55696;52.138;5.444;2023-11-18T14:06:08;11.50;78.60
68719;DHT22;55696;52.138;5.444;2023-11-18T14:08:38;11.60;78.20
68719;DHT22;55696;52.138;5.444;2023-11-18T14:11:06;11.50;77.60
68719;DHT22;55696;52.138;5.444;2023-11-18T14:13:43;11.50;78.40
68719;DHT22;55696;52.138;5.444;2023-11-18T14:16:10;11.40;77.70
68719;DHT22;55696;52.138;5.444;2023-11-18T14:18:39;11.50;77.60
68719;DHT22;55696;52.138;5.444;2023-11-18T14:21:08;11.40;77.80
68719;DHT22;55696;52.138;5.444;2023-11-18T14:23:36;11.40;78.10
68719;DHT22;55696;52.138;5.444;2023-11-18T14:26:05;11.30;78.10
68719;DHT22;55696;52.138;5.444;2023-11-18T14:28:32;11.40;78.30
68719;DHT22;55696;52.138;5.444;2023-11-18T14:31:01;12.30;78.60
68719;DHT22;55696;52.138;5.444;2023-11-18T14:33:31;11.40;79.30
68719;DHT22;55696;52.138;5.444;2023-11-18T14:36:00;11.40;77.90
68719;DHT22;55696;52.138;5.444;2023-11-18T14:38:27;11.50;78.40
68719;DHT22;55696;52.138;5.444;2023-11-18T14:40:54;11.50;78.40
68719;DHT22;55696;52.138;5.444;2023-11-18T14:43:21;11.50;78.40
68719;DHT22;55696;52.138;5.444;2023-11-18T14:45:48;11.40;78.30
68719;DHT22;55696;52.138;5.444;2023-11-18T14:48:15;11.60;78.30
68719;DHT22;55696;52.138;5.444;2023-11-18T14:50:42;11.40;78.20
68719;DHT22;55696;52.138;5.444;2023-11-18T14:53:09;11.60;78.40
68719;DHT22;55696;52.138;5.444;2023-11-18T14:55:36;11.60;78.10
68719;DHT22;55696;52.138;5.444;2023-11-18T14:58:03;11.70;78.00
68719;DHT22;55696;52.138;5.444;2023-11-18T15:00:33;11.50;77.20
68719;DHT22;55696;52.138;5.444;2023-11-18T15:03:01;11.60;77.50
68719;DHT22;55696;52.138;5.444;2023-11-18T15:05:28;11.60;77.50
68719;DHT22;55696;52.138;5.444;2023-11-18T15:07:56;11.70;77.50
68719;DHT22;55696;52.138;5.444;2023-11-18T15:10:25;11.60;78.00
68719;DHT22;55696;52.138;5.444;2023-11-18T15:12:55;11.60;78.20
68719;DHT22;55696;52.138;5.444;2023-11-18T15:15:27;11.70;78.40
68719;DHT22;55696;52.138;5.444;2023-11-18T15:18:03;11.50;78.10
68719;DHT22;55696;52.138;5.444;2023-11-18T15:20:32;11.80;78.10
68719;DHT22;55696;52.138;5.444;2023-11-18T15:22:59;11.80;77.40
68719;DHT22;55696;52.138;5.444;2023-11-18T15:25:27;11.60;76.80
68719;DHT22;55696;52.138;5.444;2023-11-18T15:27:53;11.80;76.80
68719;DHT22;55696;52.138;5.444;2023-11-18T15:30:22;11.80;76.80
68719;DHT22;55696;52.138;5.444;2023-11-18T15:32:51;11.80;76.70
68719;DHT22;55696;52.138;5.444;2023-11-18T15:35:19;11.80;76.90
68719;DHT22;55696;52.138;5.444;2023-11-18T15:37:48;11.80;76.80
68719;DHT22;55696;52.138;5.444;2023-11-18T15:40:16;11.80;77.50
68719;DHT22;55696;52.138;5.444;2023-11-18T15:42:48;11.70;77.50
68719;DHT22;55696;52.138;5.444;2023-11-18T15:45:20;11.80;77.60
68719;DHT22;55696;52.138;5.444;2023-11-18T15:47:47;11.90;77.30
68719;DHT22;55696;52.138;5.444;2023-11-18T15:50:17;11.80;76.70
68719;DHT22;55696;52.138;5.444;2023-11-18T15:52:50;11.90;76.20
68719;DHT22;55696;52.138;5.444;2023-11-18T15:55:21;11.90;77.90
68719;DHT22;55696;52.138;5.444;2023-11-18T15:57:49;12.00;77.40
68719;DHT22;55696;52.138;5.444;2023-11-18T16:00:23;12.00;77.40
68719;DHT22;55696;52.138;5.444;2023-11-18T16:02:53;12.70;77.60
68719;DHT22;55696;52.138;5.444;2023-11-18T16:05:26;11.90;77.60
68719;DHT22;55696;52.138;5.444;2023-11-18T16:07:55;12.00;77.50
68719;DHT22;55696;52.138;5.444;2023-11-18T16:10:26;12.00;78.40
68719;DHT22;55696;52.138;5.444;2023-11-18T16:12:55;12.00;78.40
68719;DHT22;55696;52.138;5.444;2023-11-18T16:15:24;12.00;77.60
68719;DHT22;55696;52.138;5.444;2023-11-18T16:17:53;12.00;77.90
68719;DHT22;55696;52.138;5.444;2023-11-18T16:20:22;12.00;77.70
68719;DHT22;55696;52.138;5.444;2023-11-18T16:22:51;11.90;77.90